sensor_id;sensor_type;location;lat;lon;timestamp;P1;durP1;ratioP1;P2;durP2;ratioP2
28625;SDS011;18905;42.668;23.364;2022-08-03T00:01:39;2.15;;;1.50;;
28625;SDS011;18905;42.668;23.364;2022-08-03T00:04:05;2.78;;;1.70;;
28625;SDS011;18905;42.668;23.364;2022-08-03T00:06:32;4.72;;;1.30;;
28625;SDS011;18905;42.668;23.364;2022-08-03T00:08:57;4.47;;;1.73;;
28625;SDS011;18905;42.668;23.364;2022-08-03T00:11:23;5.07;;;1.65;;
28625;SDS011;18905;42.668;23.364;2022-08-03T00:13:48;2.67;;;1.45;;
28625;SDS011;18905;42.668;23.364;2022-08-03T00:16:14;3.05;;;1.80;;
28625;SDS011;18905;42.668;23.364;2022-08-03T00:18:40;5.93;;;1.88;;
28625;SDS011;18905;42.668;23.364;2022-08-03T00:21:06;4.30;;;1.88;;
28625;SDS011;18905;42.668;23.364;2022-08-03T00:23:32;2.92;;;1.33;;
28625;SDS011;18905;42.668;23.364;2022-08-03T00:25:58;3.70;;;1.40;;
28625;SDS011;18905;42.668;23.364;2022-08-03T00:28:23;2.83;;;1.67;;
28625;SDS011;18905;42.668;23.364;2022-08-03T00:30:49;2.33;;;1.40;;
28625;SDS011;18905;42.668;23.364;2022-08-03T00:33:14;5.40;;;1.83;;
28625;SDS011;18905;42.668;23.364;2022-08-03T00:35:40;2.40;;;1.40;;
28625;SDS011;18905;42.668;23.364;2022-08-03T00:38:05;4.70;;;1.67;;
28625;SDS011;18905;42.668;23.364;2022-08-03T00:40:31;4.47;;;1.60;;
28625;SDS011;18905;42.668;23.364;2022-08-03T00:42:58;5.05;;;1.60;;
28625;SDS011;18905;42.668;23.364;2022-08-03T00:45:27;4.82;;;1.70;;
28625;SDS011;18905;42.668;23.364;2022-08-03T00:48:11;4.27;;;1.90;;
28625;SDS011;18905;42.668;23.364;2022-08-03T00:50:40;4.63;;;1.75;;
28625;SDS011;18905;42.668;23.364;2022-08-03T00:53:07;8.77;;;1.80;;
28625;SDS011;18905;42.668;23.364;2022-08-03T00:55:36;5.43;;;1.98;;
28625;SDS011;18905;42.668;23.364;2022-08-03T00:58:02;6.22;;;2.00;;
28625;SDS011;18905;42.668;23.364;2022-08-03T01:00:32;3.55;;;1.80;;
28625;SDS011;18905;42.668;23.364;2022-08-03T01:03:00;2.47;;;1.60;;
28625;SDS011;18905;42.668;23.364;2022-08-03T01:05:26;3.38;;;2.00;;
28625;SDS011;18905;42.668;23.364;2022-08-03T01:21:33;9.95;;;6.22;;
28625;SDS011;18905;42.668;23.364;2022-08-03T01:29:51;8.85;;;4.50;;
28625;SDS011;18905;42.668;23.364;2022-08-03T01:32:28;8.45;;;4.72;;
28625;SDS011;18905;42.668;23.364;2022-08-03T01:35:11;8.02;;;4.65;;
28625;SDS011;18905;42.668;23.364;2022-08-03T01:37:56;5.47;;;3.78;;
28625;SDS011;18905;42.668;23.364;2022-08-03T01:40:28;4.50;;;2.70;;
28625;SDS011;18905;42.668;23.364;2022-08-03T01:42:58;11.02;;;2.70;;
28625;SDS011;18905;42.668;23.364;2022-08-03T01:45:26;3.70;;;2.08;;
28625;SDS011;18905;42.668;23.364;2022-08-03T01:47:53;3.13;;;2.00;;
28625;SDS011;18905;42.668;23.364;2022-08-03T01:50:21;4.10;;;2.08;;
28625;SDS011;18905;42.668;23.364;2022-08-03T01:52:48;8.25;;;1.90;;
28625;SDS011;18905;42.668;23.364;2022-08-03T01:55:16;3.42;;;1.75;;
28625;SDS011;18905;42.668;23.364;2022-08-03T01:57:43;4.28;;;2.00;;
28625;SDS011;18905;42.668;23.364;2022-08-03T02:00:12;6.72;;;2.08;;
28625;SDS011;18905;42.668;23.364;2022-08-03T02:02:38;7.10;;;1.98;;
28625;SDS011;18905;42.668;23.364;2022-08-03T02:05:06;2.33;;;1.60;;
28625;SDS011;18905;42.668;23.364;2022-08-03T02:07:34;7.47;;;2.40;;
28625;SDS011;18905;42.668;23.364;2022-08-03T02:10:01;5.95;;;1.92;;
28625;SDS011;18905;42.668;23.364;2022-08-03T02:12:29;1.90;;;1.50;;
28625;SDS011;18905;42.668;23.364;2022-08-03T02:14:56;1.65;;;1.50;;
28625;SDS011;18905;42.668;23.364;2022-08-03T02:17:24;3.45;;;1.27;;
28625;SDS011;18905;42.668;23.364;2022-08-03T02:19:51;4.70;;;1.35;;
28625;SDS011;18905;42.668;23.364;2022-08-03T02:22:18;2.65;;;1.70;;
28625;SDS011;18905;42.668;23.364;2022-08-03T02:24:44;2.33;;;1.30;;
28625;SDS011;18905;42.668;23.364;2022-08-03T02:27:12;1.90;;;1.33;;
28625;SDS011;18905;42.668;23.364;2022-08-03T02:29:44;2.53;;;1.60;;
28625;SDS011;18905;42.668;23.364;2022-08-03T02:32:13;8.07;;;1.80;;
28625;SDS011;18905;42.668;23.364;2022-08-03T02:34:44;2.15;;;1.65;;
28625;SDS011;18905;42.668;23.364;2022-08-03T02:37:13;3.17;;;1.90;;
28625;SDS011;18905;42.668;23.364;2022-08-03T02:39:41;4.35;;;2.10;;
28625;SDS011;18905;42.668;23.364;2022-08-03T02:42:09;5.70;;;1.95;;
28625;SDS011;18905;42.668;23.364;2022-08-03T02:44:36;3.38;;;1.92;;
28625;SDS011;18905;42.668;23.364;2022-08-03T02:47:05;7.10;;;2.20;;
28625;SDS011;18905;42.668;23.364;2022-08-03T02:49:33;3.75;;;1.90;;
28625;SDS011;18905;42.668;23.364;2022-08-03T02:52:00;3.05;;;1.95;;
28625;SDS011;18905;42.668;23.364;2022-08-03T02:54:28;3.75;;;1.77;;
28625;SDS011;18905;42.668;23.364;2022-08-03T02:56:57;5.35;;;2.03;;
28625;SDS011;18905;42.668;23.364;2022-08-03T02:59:24;5.13;;;2.00;;
28625;SDS011;18905;42.668;23.364;2022-08-03T03:01:52;5.60;;;1.80;;
28625;SDS011;18905;42.668;23.364;2022-08-03T03:04:19;7.22;;;2.28;;
28625;SDS011;18905;42.668;23.364;2022-08-03T03:06:45;4.13;;;2.13;;
28625;SDS011;18905;42.668;23.364;2022-08-03T03:09:11;3.15;;;1.98;;
28625;SDS011;18905;42.668;23.364;2022-08-03T03:11:37;5.05;;;2.00;;
28625;SDS011;18905;42.668;23.364;2022-08-03T03:14:03;8.80;;;2.28;;
28625;SDS011;18905;42.668;23.364;2022-08-03T03:16:30;5.20;;;1.90;;
28625;SDS011;18905;42.668;23.364;2022-08-03T03:18:56;6.40;;;2.53;;
28625;SDS011;18905;42.668;23.364;2022-08-03T03:21:23;5.55;;;2.28;;
28625;SDS011;18905;42.668;23.364;2022-08-03T03:23:50;8.88;;;2.50;;
28625;SDS011;18905;42.668;23.364;2022-08-03T03:26:16;7.03;;;3.35;;
28625;SDS011;18905;42.668;23.364;2022-08-03T03:28:43;6.95;;;3.75;;
28625;SDS011;18905;42.668;23.364;2022-08-03T03:31:09;8.32;;;3.83;;
28625;SDS011;18905;42.668;23.364;2022-08-03T03:33:35;7.38;;;3.97;;
28625;SDS011;18905;42.668;23.364;2022-08-03T03:36:02;8.43;;;3.10;;
28625;SDS011;18905;42.668;23.364;2022-08-03T03:38:29;5.30;;;2.80;;
28625;SDS011;18905;42.668;23.364;2022-08-03T03:40:55;10.82;;;3.25;;
28625;SDS011;18905;42.668;23.364;2022-08-03T03:43:21;12.70;;;3.03;;
28625;SDS011;18905;42.668;23.364;2022-08-03T03:45:47;6.25;;;2.83;;
28625;SDS011;18905;42.668;23.364;2022-08-03T03:48:13;5.15;;;2.88;;
28625;SDS011;18905;42.668;23.364;2022-08-03T03:50:39;5.65;;;2.95;;
28625;SDS011;18905;42.668;23.364;2022-08-03T03:53:07;6.68;;;2.97;;
28625;SDS011;18905;42.668;23.364;2022-08-03T03:55:34;6.10;;;2.50;;
28625;SDS011;18905;42.668;23.364;2022-08-03T03:57:59;5.15;;;2.70;;
28625;SDS011;18905;42.668;23.364;2022-08-03T04:00:24;4.18;;;2.63;;
28625;SDS011;18905;42.668;23.364;2022-08-03T04:02:50;3.65;;;2.58;;
28625;SDS011;18905;42.668;23.364;2022-08-03T04:05:15;5.68;;;2.38;;
28625;SDS011;18905;42.668;23.364;2022-08-03T04:08:00;4.43;;;2.28;;
28625;SDS011;18905;42.668;23.364;2022-08-03T04:10:53;5.15;;;2.53;;
28625;SDS011;18905;42.668;23.364;2022-08-03T04:13:23;12.40;;;2.80;;
28625;SDS011;18905;42.668;23.364;2022-08-03T04:15:57;7.28;;;2.35;;
28625;SDS011;18905;42.668;23.364;2022-08-03T04:18:24;8.93;;;2.22;;
28625;SDS011;18905;42.668;23.364;2022-08-03T04:20:51;6.57;;;2.45;;
28625;SDS011;18905;42.668;23.364;2022-08-03T04:23:20;6.38;;;2.55;;
28625;SDS011;18905;42.668;23.364;2022-08-03T04:25:48;10.45;;;3.00;;
28625;SDS011;18905;42.668;23.364;2022-08-03T04:28:16;9.18;;;3.08;;
28625;SDS011;18905;42.668;23.364;2022-08-03T04:30:44;9.98;;;2.35;;
28625;SDS011;18905;42.668;23.364;2022-08-03T04:33:13;7.47;;;2.95;;
28625;SDS011;18905;42.668;23.364;2022-08-03T04:35:40;7.03;;;2.10;;
28625;SDS011;18905;42.668;23.364;2022-08-03T04:38:08;4.63;;;2.42;;
28625;SDS011;18905;42.668;23.364;2022-08-03T04:40:38;6.03;;;2.22;;
28625;SDS011;18905;42.668;23.364;2022-08-03T04:43:06;7.28;;;2.40;;
28625;SDS011;18905;42.668;23.364;2022-08-03T04:45:33;10.93;;;2.78;;
28625;SDS011;18905;42.668;23.364;2022-08-03T04:48:00;6.20;;;2.28;;
28625;SDS011;18905;42.668;23.364;2022-08-03T04:50:27;5.47;;;2.53;;
28625;SDS011;18905;42.668;23.364;2022-08-03T04:52:52;4.78;;;2.72;;
28625;SDS011;18905;42.668;23.364;2022-08-03T04:55:25;13.43;;;2.75;;
28625;SDS011;18905;42.668;23.364;2022-08-03T04:57:54;5.53;;;2.63;;
28625;SDS011;18905;42.668;23.364;2022-08-03T05:00:21;7.05;;;3.05;;
28625;SDS011;18905;42.668;23.364;2022-08-03T05:02:46;7.70;;;2.88;;
28625;SDS011;18905;42.668;23.364;2022-08-03T05:05:12;6.88;;;3.47;;
28625;SDS011;18905;42.668;23.364;2022-08-03T05:07:37;6.72;;;2.97;;
28625;SDS011;18905;42.668;23.364;2022-08-03T05:10:03;6.70;;;3.13;;
28625;SDS011;18905;42.668;23.364;2022-08-03T05:12:30;10.00;;;2.83;;
28625;SDS011;18905;42.668;23.364;2022-08-03T05:14:56;14.68;;;3.17;;
28625;SDS011;18905;42.668;23.364;2022-08-03T05:17:21;7.15;;;2.65;;
28625;SDS011;18905;42.668;23.364;2022-08-03T05:19:47;11.68;;;2.75;;
28625;SDS011;18905;42.668;23.364;2022-08-03T05:22:12;8.18;;;2.88;;
28625;SDS011;18905;42.668;23.364;2022-08-03T05:24:37;4.53;;;3.00;;
28625;SDS011;18905;42.668;23.364;2022-08-03T05:27:03;9.20;;;3.42;;
28625;SDS011;18905;42.668;23.364;2022-08-03T05:29:28;7.05;;;3.17;;
28625;SDS011;18905;42.668;23.364;2022-08-03T05:31:54;11.20;;;2.58;;
28625;SDS011;18905;42.668;23.364;2022-08-03T05:34:19;7.68;;;3.58;;
28625;SDS011;18905;42.668;23.364;2022-08-03T05:36:45;12.43;;;3.60;;
28625;SDS011;18905;42.668;23.364;2022-08-03T05:39:10;9.10;;;3.58;;
28625;SDS011;18905;42.668;23.364;2022-08-03T05:41:35;5.55;;;3.13;;
28625;SDS011;18905;42.668;23.364;2022-08-03T05:44:01;5.65;;;3.60;;
28625;SDS011;18905;42.668;23.364;2022-08-03T05:46:26;8.18;;;3.35;;
28625;SDS011;18905;42.668;23.364;2022-08-03T05:48:52;4.80;;;3.28;;
28625;SDS011;18905;42.668;23.364;2022-08-03T05:51:17;7.40;;;2.97;;
28625;SDS011;18905;42.668;23.364;2022-08-03T05:53:43;5.50;;;3.60;;
28625;SDS011;18905;42.668;23.364;2022-08-03T05:56:09;8.40;;;3.10;;
28625;SDS011;18905;42.668;23.364;2022-08-03T05:58:35;10.35;;;3.20;;
28625;SDS011;18905;42.668;23.364;2022-08-03T06:01:00;14.45;;;3.75;;
28625;SDS011;18905;42.668;23.364;2022-08-03T06:03:25;9.23;;;4.03;;
28625;SDS011;18905;42.668;23.364;2022-08-03T06:05:52;5.78;;;3.60;;
28625;SDS011;18905;42.668;23.364;2022-08-03T06:08:19;8.85;;;3.63;;
28625;SDS011;18905;42.668;23.364;2022-08-03T06:10:45;12.73;;;4.00;;
28625;SDS011;18905;42.668;23.364;2022-08-03T06:13:10;12.43;;;3.63;;
28625;SDS011;18905;42.668;23.364;2022-08-03T06:15:35;7.97;;;3.63;;
28625;SDS011;18905;42.668;23.364;2022-08-03T06:18:01;11.50;;;3.50;;
28625;SDS011;18905;42.668;23.364;2022-08-03T06:20:26;6.38;;;3.08;;
28625;SDS011;18905;42.668;23.364;2022-08-03T06:22:52;10.82;;;4.10;;
28625;SDS011;18905;42.668;23.364;2022-08-03T06:25:18;8.82;;;4.28;;
28625;SDS011;18905;42.668;23.364;2022-08-03T06:27:44;9.48;;;4.80;;
28625;SDS011;18905;42.668;23.364;2022-08-03T06:30:10;9.57;;;3.95;;
28625;SDS011;18905;42.668;23.364;2022-08-03T06:32:36;10.43;;;4.50;;
28625;SDS011;18905;42.668;23.364;2022-08-03T06:35:03;12.27;;;4.72;;
28625;SDS011;18905;42.668;23.364;2022-08-03T06:37:30;11.27;;;4.75;;
28625;SDS011;18905;42.668;23.364;2022-08-03T06:39:55;7.35;;;3.90;;
28625;SDS011;18905;42.668;23.364;2022-08-03T06:42:21;5.18;;;3.88;;
28625;SDS011;18905;42.668;23.364;2022-08-03T06:44:46;8.80;;;3.78;;
28625;SDS011;18905;42.668;23.364;2022-08-03T06:47:11;8.88;;;3.72;;
28625;SDS011;18905;42.668;23.364;2022-08-03T06:49:37;6.93;;;3.53;;
28625;SDS011;18905;42.668;23.364;2022-08-03T06:52:02;8.60;;;3.85;;
28625;SDS011;18905;42.668;23.364;2022-08-03T06:54:28;6.97;;;3.22;;
28625;SDS011;18905;42.668;23.364;2022-08-03T06:56:54;12.40;;;3.70;;
28625;SDS011;18905;42.668;23.364;2022-08-03T06:59:19;14.85;;;4.05;;
28625;SDS011;18905;42.668;23.364;2022-08-03T07:01:44;6.65;;;3.50;;
28625;SDS011;18905;42.668;23.364;2022-08-03T07:04:10;8.32;;;3.42;;
28625;SDS011;18905;42.668;23.364;2022-08-03T07:06:36;20.10;;;3.50;;
28625;SDS011;18905;42.668;23.364;2022-08-03T07:09:02;14.18;;;3.85;;
28625;SDS011;18905;42.668;23.364;2022-08-03T07:11:27;14.82;;;3.60;;
28625;SDS011;18905;42.668;23.364;2022-08-03T07:13:53;10.45;;;3.80;;
28625;SDS011;18905;42.668;23.364;2022-08-03T07:16:18;12.82;;;3.92;;
28625;SDS011;18905;42.668;23.364;2022-08-03T07:18:44;8.65;;;3.30;;
28625;SDS011;18905;42.668;23.364;2022-08-03T07:21:10;7.55;;;3.10;;
28625;SDS011;18905;42.668;23.364;2022-08-03T07:23:36;6.95;;;2.92;;
28625;SDS011;18905;42.668;23.364;2022-08-03T07:26:02;7.22;;;3.53;;
28625;SDS011;18905;42.668;23.364;2022-08-03T07:28:27;6.97;;;3.15;;
28625;SDS011;18905;42.668;23.364;2022-08-03T07:30:53;6.20;;;2.97;;
28625;SDS011;18905;42.668;23.364;2022-08-03T07:33:18;10.35;;;3.08;;
28625;SDS011;18905;42.668;23.364;2022-08-03T07:35:44;7.70;;;2.83;;
28625;SDS011;18905;42.668;23.364;2022-08-03T07:38:09;6.32;;;3.22;;
28625;SDS011;18905;42.668;23.364;2022-08-03T07:40:34;6.75;;;3.38;;
28625;SDS011;18905;42.668;23.364;2022-08-03T07:43:00;9.80;;;3.50;;
28625;SDS011;18905;42.668;23.364;2022-08-03T07:45:27;11.85;;;4.10;;
28625;SDS011;18905;42.668;23.364;2022-08-03T07:47:54;7.85;;;3.35;;
28625;SDS011;18905;42.668;23.364;2022-08-03T07:50:19;10.48;;;2.85;;
28625;SDS011;18905;42.668;23.364;2022-08-03T07:52:45;9.45;;;3.15;;
28625;SDS011;18905;42.668;23.364;2022-08-03T07:55:14;6.63;;;3.30;;
28625;SDS011;18905;42.668;23.364;2022-08-03T07:57:40;9.50;;;3.47;;
28625;SDS011;18905;42.668;23.364;2022-08-03T08:00:10;7.25;;;3.05;;
28625;SDS011;18905;42.668;23.364;2022-08-03T08:02:41;9.88;;;3.20;;
28625;SDS011;18905;42.668;23.364;2022-08-03T08:05:07;6.65;;;3.20;;
28625;SDS011;18905;42.668;23.364;2022-08-03T08:07:34;7.90;;;3.42;;
28625;SDS011;18905;42.668;23.364;2022-08-03T08:10:00;8.23;;;3.10;;
28625;SDS011;18905;42.668;23.364;2022-08-03T08:12:25;9.18;;;3.28;;
28625;SDS011;18905;42.668;23.364;2022-08-03T08:14:51;6.18;;;3.20;;
28625;SDS011;18905;42.668;23.364;2022-08-03T08:17:16;9.05;;;3.28;;
28625;SDS011;18905;42.668;23.364;2022-08-03T08:19:42;5.05;;;2.60;;
28625;SDS011;18905;42.668;23.364;2022-08-03T08:22:07;11.23;;;3.13;;
28625;SDS011;18905;42.668;23.364;2022-08-03T08:24:33;13.55;;;3.63;;
28625;SDS011;18905;42.668;23.364;2022-08-03T08:26:58;10.45;;;3.30;;
28625;SDS011;18905;42.668;23.364;2022-08-03T08:29:25;8.25;;;3.25;;
28625;SDS011;18905;42.668;23.364;2022-08-03T08:31:51;5.10;;;2.78;;
28625;SDS011;18905;42.668;23.364;2022-08-03T08:34:16;5.70;;;2.78;;
28625;SDS011;18905;42.668;23.364;2022-08-03T08:36:42;6.80;;;3.13;;
28625;SDS011;18905;42.668;23.364;2022-08-03T08:39:07;8.50;;;3.58;;
28625;SDS011;18905;42.668;23.364;2022-08-03T08:41:33;9.30;;;3.15;;
28625;SDS011;18905;42.668;23.364;2022-08-03T08:43:59;7.35;;;3.22;;
28625;SDS011;18905;42.668;23.364;2022-08-03T08:46:25;11.73;;;3.10;;
28625;SDS011;18905;42.668;23.364;2022-08-03T08:48:51;9.77;;;3.08;;
28625;SDS011;18905;42.668;23.364;2022-08-03T08:51:18;14.30;;;3.60;;
28625;SDS011;18905;42.668;23.364;2022-08-03T08:53:46;9.95;;;3.35;;
28625;SDS011;18905;42.668;23.364;2022-08-03T08:56:15;17.38;;;3.75;;
28625;SDS011;18905;42.668;23.364;2022-08-03T08:58:43;17.48;;;3.97;;
28625;SDS011;18905;42.668;23.364;2022-08-03T09:01:12;9.20;;;2.83;;
28625;SDS011;18905;42.668;23.364;2022-08-03T09:03:38;6.63;;;2.58;;
28625;SDS011;18905;42.668;23.364;2022-08-03T09:06:03;5.20;;;2.40;;
28625;SDS011;18905;42.668;23.364;2022-08-03T09:08:30;8.05;;;2.63;;
28625;SDS011;18905;42.668;23.364;2022-08-03T09:10:56;3.70;;;2.40;;
28625;SDS011;18905;42.668;23.364;2022-08-03T09:13:22;11.05;;;3.30;;
28625;SDS011;18905;42.668;23.364;2022-08-03T09:15:47;5.78;;;2.85;;
28625;SDS011;18905;42.668;23.364;2022-08-03T09:18:22;7.03;;;2.70;;
28625;SDS011;18905;42.668;23.364;2022-08-03T09:20:53;6.72;;;2.75;;
28625;SDS011;18905;42.668;23.364;2022-08-03T09:24:10;11.05;;;3.03;;
28625;SDS011;18905;42.668;23.364;2022-08-03T09:26:30;11.85;;;2.25;;
28625;SDS011;18905;42.668;23.364;2022-08-03T09:28:57;4.90;;;2.47;;
28625;SDS011;18905;42.668;23.364;2022-08-03T09:31:28;3.22;;;1.90;;
28625;SDS011;18905;42.668;23.364;2022-08-03T09:33:55;3.28;;;2.00;;
28625;SDS011;18905;42.668;23.364;2022-08-03T09:36:36;3.45;;;2.10;;
28625;SDS011;18905;42.668;23.364;2022-08-03T09:39:04;5.70;;;2.28;;
28625;SDS011;18905;42.668;23.364;2022-08-03T09:41:34;5.47;;;3.28;;
28625;SDS011;18905;42.668;23.364;2022-08-03T09:44:00;5.47;;;3.35;;
28625;SDS011;18905;42.668;23.364;2022-08-03T09:46:25;7.55;;;2.53;;
28625;SDS011;18905;42.668;23.364;2022-08-03T09:49:07;3.47;;;2.05;;
28625;SDS011;18905;42.668;23.364;2022-08-03T09:51:33;7.47;;;2.28;;
28625;SDS011;18905;42.668;23.364;2022-08-03T09:53:58;4.75;;;2.22;;
28625;SDS011;18905;42.668;23.364;2022-08-03T09:56:43;4.60;;;2.30;;
28625;SDS011;18905;42.668;23.364;2022-08-03T09:59:11;4.22;;;1.88;;
28625;SDS011;18905;42.668;23.364;2022-08-03T10:01:38;5.45;;;2.25;;
28625;SDS011;18905;42.668;23.364;2022-08-03T10:04:13;5.05;;;1.90;;
28625;SDS011;18905;42.668;23.364;2022-08-03T10:06:41;8.00;;;1.90;;
28625;SDS011;18905;42.668;23.364;2022-08-03T10:09:12;2.90;;;2.05;;
28625;SDS011;18905;42.668;23.364;2022-08-03T10:11:39;3.08;;;2.10;;
28625;SDS011;18905;42.668;23.364;2022-08-03T10:14:07;3.40;;;2.35;;
28625;SDS011;18905;42.668;23.364;2022-08-03T10:16:37;4.60;;;2.08;;
28625;SDS011;18905;42.668;23.364;2022-08-03T10:19:05;3.70;;;1.65;;
28625;SDS011;18905;42.668;23.364;2022-08-03T10:21:34;5.35;;;1.98;;
28625;SDS011;18905;42.668;23.364;2022-08-03T10:24:02;2.85;;;1.83;;
28625;SDS011;18905;42.668;23.364;2022-08-03T10:26:30;2.42;;;1.67;;
28625;SDS011;18905;42.668;23.364;2022-08-03T10:29:01;5.22;;;1.80;;
28625;SDS011;18905;42.668;23.364;2022-08-03T10:31:33;4.60;;;2.40;;
28625;SDS011;18905;42.668;23.364;2022-08-03T10:34:05;6.05;;;2.00;;
28625;SDS011;18905;42.668;23.364;2022-08-03T10:36:35;2.42;;;1.73;;
28625;SDS011;18905;42.668;23.364;2022-08-03T10:39:02;3.55;;;1.83;;
28625;SDS011;18905;42.668;23.364;2022-08-03T10:41:30;2.15;;;1.80;;
28625;SDS011;18905;42.668;23.364;2022-08-03T10:44:04;3.08;;;2.03;;
28625;SDS011;18905;42.668;23.364;2022-08-03T10:46:32;5.72;;;1.60;;
28625;SDS011;18905;42.668;23.364;2022-08-03T10:49:00;3.92;;;1.83;;
28625;SDS011;18905;42.668;23.364;2022-08-03T10:51:26;3.42;;;1.65;;
28625;SDS011;18905;42.668;23.364;2022-08-03T10:53:56;2.00;;;1.80;;
28625;SDS011;18905;42.668;23.364;2022-08-03T10:59:18;4.45;;;1.77;;
28625;SDS011;18905;42.668;23.364;2022-08-03T11:02:03;3.00;;;2.05;;
28625;SDS011;18905;42.668;23.364;2022-08-03T11:04:32;2.13;;;1.58;;
28625;SDS011;18905;42.668;23.364;2022-08-03T11:09:47;3.28;;;1.80;;
28625;SDS011;18905;42.668;23.364;2022-08-03T11:12:21;6.07;;;1.90;;
28625;SDS011;18905;42.668;23.364;2022-08-03T11:14:48;8.57;;;1.88;;
28625;SDS011;18905;42.668;23.364;2022-08-03T11:17:13;2.55;;;1.50;;
28625;SDS011;18905;42.668;23.364;2022-08-03T11:19:42;14.50;;;2.63;;
28625;SDS011;18905;42.668;23.364;2022-08-03T11:22:15;3.35;;;1.83;;
28625;SDS011;18905;42.668;23.364;2022-08-03T11:35:15;4.63;;;1.80;;
28625;SDS011;18905;42.668;23.364;2022-08-03T11:45:55;3.65;;;1.50;;
28625;SDS011;18905;42.668;23.364;2022-08-03T11:48:21;9.20;;;1.77;;
28625;SDS011;18905;42.668;23.364;2022-08-03T11:50:47;2.40;;;1.80;;
28625;SDS011;18905;42.668;23.364;2022-08-03T11:53:14;6.97;;;1.80;;
28625;SDS011;18905;42.668;23.364;2022-08-03T11:55:42;10.15;;;1.45;;
28625;SDS011;18905;42.668;23.364;2022-08-03T11:58:19;4.50;;;1.40;;
28625;SDS011;18905;42.668;23.364;2022-08-03T12:00:46;1.90;;;1.50;;
28625;SDS011;18905;42.668;23.364;2022-08-03T12:03:13;4.70;;;1.80;;
28625;SDS011;18905;42.668;23.364;2022-08-03T12:05:47;2.55;;;1.50;;
28625;SDS011;18905;42.668;23.364;2022-08-03T12:08:14;3.97;;;2.00;;
28625;SDS011;18905;42.668;23.364;2022-08-03T12:10:59;2.40;;;1.47;;
28625;SDS011;18905;42.668;23.364;2022-08-03T12:13:44;5.30;;;1.67;;
28625;SDS011;18905;42.668;23.364;2022-08-03T12:16:21;3.17;;;1.77;;
28625;SDS011;18905;42.668;23.364;2022-08-03T12:18:58;1.95;;;1.42;;
28625;SDS011;18905;42.668;23.364;2022-08-03T12:21:25;1.63;;;1.52;;
28625;SDS011;18905;42.668;23.364;2022-08-03T12:23:55;3.13;;;1.52;;
28625;SDS011;18905;42.668;23.364;2022-08-03T12:26:24;3.22;;;1.70;;
28625;SDS011;18905;42.668;23.364;2022-08-03T12:28:50;4.32;;;1.80;;
28625;SDS011;18905;42.668;23.364;2022-08-03T12:31:16;4.90;;;2.10;;
28625;SDS011;18905;42.668;23.364;2022-08-03T12:33:55;5.18;;;1.60;;
28625;SDS011;18905;42.668;23.364;2022-08-03T12:36:22;4.18;;;2.53;;
28625;SDS011;18905;42.668;23.364;2022-08-03T12:38:58;4.07;;;1.50;;
28625;SDS011;18905;42.668;23.364;2022-08-03T12:41:29;2.60;;;1.55;;
28625;SDS011;18905;42.668;23.364;2022-08-03T12:43:56;2.35;;;1.88;;
28625;SDS011;18905;42.668;23.364;2022-08-03T12:46:22;2.83;;;1.70;;
28625;SDS011;18905;42.668;23.364;2022-08-03T12:54:16;1.90;;;1.50;;
28625;SDS011;18905;42.668;23.364;2022-08-03T12:59:41;3.78;;;1.73;;
28625;SDS011;18905;42.668;23.364;2022-08-03T13:04:42;3.95;;;2.50;;
28625;SDS011;18905;42.668;23.364;2022-08-03T13:07:09;3.42;;;2.00;;
28625;SDS011;18905;42.668;23.364;2022-08-03T13:09:43;4.53;;;1.60;;
28625;SDS011;18905;42.668;23.364;2022-08-03T13:12:11;3.03;;;2.10;;
28625;SDS011;18905;42.668;23.364;2022-08-03T13:14:38;4.45;;;1.67;;
28625;SDS011;18905;42.668;23.364;2022-08-03T13:17:04;4.57;;;2.22;;
28625;SDS011;18905;42.668;23.364;2022-08-03T13:19:33;8.32;;;1.60;;
28625;SDS011;18905;42.668;23.364;2022-08-03T13:22:00;6.93;;;1.85;;
28625;SDS011;18905;42.668;23.364;2022-08-03T13:24:34;2.60;;;1.90;;
28625;SDS011;18905;42.668;23.364;2022-08-03T13:27:00;5.70;;;1.90;;
28625;SDS011;18905;42.668;23.364;2022-08-03T13:29:26;3.22;;;1.92;;
28625;SDS011;18905;42.668;23.364;2022-08-03T13:31:52;6.05;;;1.85;;
28625;SDS011;18905;42.668;23.364;2022-08-03T13:34:17;3.67;;;1.95;;
28625;SDS011;18905;42.668;23.364;2022-08-03T13:36:43;7.90;;;2.00;;
28625;SDS011;18905;42.668;23.364;2022-08-03T13:39:08;3.35;;;2.30;;
28625;SDS011;18905;42.668;23.364;2022-08-03T13:41:34;8.88;;;2.30;;
28625;SDS011;18905;42.668;23.364;2022-08-03T13:43:59;9.68;;;2.08;;
28625;SDS011;18905;42.668;23.364;2022-08-03T13:46:24;5.05;;;2.08;;
28625;SDS011;18905;42.668;23.364;2022-08-03T13:48:51;2.63;;;1.90;;
28625;SDS011;18905;42.668;23.364;2022-08-03T13:51:18;2.85;;;2.00;;
28625;SDS011;18905;42.668;23.364;2022-08-03T13:53:47;3.28;;;2.08;;
28625;SDS011;18905;42.668;23.364;2022-08-03T13:56:13;6.78;;;2.20;;
28625;SDS011;18905;42.668;23.364;2022-08-03T13:58:39;3.78;;;2.10;;
28625;SDS011;18905;42.668;23.364;2022-08-03T14:01:04;3.03;;;2.20;;
28625;SDS011;18905;42.668;23.364;2022-08-03T14:03:30;3.38;;;2.10;;
28625;SDS011;18905;42.668;23.364;2022-08-03T14:05:56;7.75;;;2.05;;
28625;SDS011;18905;42.668;23.364;2022-08-03T14:08:21;2.55;;;2.10;;
28625;SDS011;18905;42.668;23.364;2022-08-03T14:10:47;4.70;;;2.28;;
28625;SDS011;18905;42.668;23.364;2022-08-03T14:13:13;4.68;;;2.25;;
28625;SDS011;18905;42.668;23.364;2022-08-03T14:15:39;3.42;;;2.40;;
28625;SDS011;18905;42.668;23.364;2022-08-03T14:18:06;4.20;;;2.10;;
28625;SDS011;18905;42.668;23.364;2022-08-03T14:20:32;3.20;;;2.25;;
28625;SDS011;18905;42.668;23.364;2022-08-03T14:22:57;3.42;;;2.47;;
28625;SDS011;18905;42.668;23.364;2022-08-03T14:25:23;9.77;;;2.42;;
28625;SDS011;18905;42.668;23.364;2022-08-03T14:27:48;2.40;;;2.17;;
28625;SDS011;18905;42.668;23.364;2022-08-03T14:30:14;5.85;;;2.40;;
28625;SDS011;18905;42.668;23.364;2022-08-03T14:32:39;3.90;;;2.17;;
28625;SDS011;18905;42.668;23.364;2022-08-03T14:35:06;2.95;;;1.98;;
28625;SDS011;18905;42.668;23.364;2022-08-03T14:37:32;4.22;;;2.17;;
28625;SDS011;18905;42.668;23.364;2022-08-03T14:39:58;2.10;;;1.60;;
28625;SDS011;18905;42.668;23.364;2022-08-03T14:42:24;7.85;;;2.55;;
28625;SDS011;18905;42.668;23.364;2022-08-03T14:44:50;2.58;;;1.98;;
28625;SDS011;18905;42.668;23.364;2022-08-03T14:47:16;6.00;;;1.90;;
28625;SDS011;18905;42.668;23.364;2022-08-03T14:49:41;3.25;;;1.80;;
28625;SDS011;18905;42.668;23.364;2022-08-03T14:52:07;3.65;;;1.92;;
28625;SDS011;18905;42.668;23.364;2022-08-03T14:54:33;3.88;;;2.03;;
28625;SDS011;18905;42.668;23.364;2022-08-03T14:56:59;4.90;;;2.10;;
28625;SDS011;18905;42.668;23.364;2022-08-03T14:59:24;2.08;;;1.70;;
28625;SDS011;18905;42.668;23.364;2022-08-03T15:01:50;5.70;;;2.17;;
28625;SDS011;18905;42.668;23.364;2022-08-03T15:04:15;9.30;;;2.75;;
28625;SDS011;18905;42.668;23.364;2022-08-03T15:06:41;8.40;;;2.78;;
28625;SDS011;18905;42.668;23.364;2022-08-03T15:09:06;5.93;;;2.60;;
28625;SDS011;18905;42.668;23.364;2022-08-03T15:11:31;3.00;;;1.98;;
28625;SDS011;18905;42.668;23.364;2022-08-03T15:13:57;3.80;;;2.13;;
28625;SDS011;18905;42.668;23.364;2022-08-03T15:16:22;4.82;;;2.35;;
28625;SDS011;18905;42.668;23.364;2022-08-03T15:18:47;4.85;;;2.58;;
28625;SDS011;18905;42.668;23.364;2022-08-03T15:21:13;4.05;;;2.40;;
28625;SDS011;18905;42.668;23.364;2022-08-03T15:23:38;2.70;;;2.40;;
28625;SDS011;18905;42.668;23.364;2022-08-03T15:26:04;2.90;;;2.42;;
28625;SDS011;18905;42.668;23.364;2022-08-03T15:28:29;6.05;;;2.30;;
28625;SDS011;18905;42.668;23.364;2022-08-03T15:30:55;3.85;;;2.08;;